Time;durP1;ratioP1;P1;durP2;ratioP2;P2;SDS_P1;SDS_P2;PMS_P1;PMS_P2;Temp;Humidity;BMP_temperature;BMP_pressure;BME280_temperature;BME280_humidity;BME280_pressure;Samples;Min_cycle;Max_cycle;Signal;HPM_P1;HPM_P2
2023/07/07 00:00:24;;;;;;;4.40;3.63;;;17.90;99.90;;;;;;5127980;27;20733;-81
2023/07/07 00:02:51;;;;;;;3.53;3.23;;;17.90;99.90;;;;;;5128518;27;20206;-80
2023/07/07 00:05:19;;;;;;;3.93;3.63;;;17.80;99.90;;;;;;5128424;27;20209;-80
2023/07/07 00:07:48;;;;;;;3.90;3.60;;;17.80;99.90;;;;;;5128600;27;20213;-79
2023/07/07 00:10:15;;;;;;;5.33;3.50;;;17.70;99.90;;;;;;5128653;27;20201;-79
2023/07/07 00:12:44;;;;;;;4.10;3.13;;;17.70;99.90;;;;;;5128476;27;20278;-78
2023/07/07 00:15:11;;;;;;;4.20;3.13;;;17.70;99.90;;;;;;5128349;27;20201;-79
2023/07/07 00:17:41;;;;;;;3.23;2.93;;;17.70;99.90;;;;;;5127794;27;20251;-78
2023/07/07 00:20:10;;;;;;;3.47;3.23;;;17.70;99.90;;;;;;5127903;27;20730;-79
2023/07/07 00:22:37;;;;;;;3.77;3.43;;;17.70;99.90;;;;;;5127839;27;20660;-79
2023/07/07 00:25:06;;;;;;;3.80;3.40;;;17.60;99.90;;;;;;5125267;27;20828;-79
2023/07/07 00:27:33;;;;;;;4.07;3.20;;;17.70;99.90;;;;;;5107020;28;20206;-79
2023/07/07 00:30:02;;;;;;;3.20;3.00;;;17.60;99.90;;;;;;5125458;27;20631;-78
2023/07/07 00:32:30;;;;;;;3.50;3.30;;;17.60;99.90;;;;;;5117303;27;20263;-78
2023/07/07 00:34:57;;;;;;;3.50;3.23;;;17.60;99.90;;;;;;5107573;28;20290;-79
2023/07/07 00:37:24;;;;;;;2.97;2.77;;;17.60;99.90;;;;;;5124216;27;20267;-79
2023/07/07 00:39:51;;;;;;;3.40;3.20;;;17.60;99.90;;;;;;5127918;27;20220;-78
2023/07/07 00:42:18;;;;;;;3.27;2.97;;;17.50;99.90;;;;;;5128280;27;20237;-80
2023/07/07 00:45:15;;;;;;;4.83;3.40;;;17.50;99.90;;;;;;5112276;27;20206;-78
2023/07/07 00:47:49;;;;;;;4.77;3.23;;;17.50;99.90;;;;;;5106942;28;20517;-77
2023/07/07 00:50:17;;;;;;;3.77;3.57;;;17.50;99.90;;;;;;5106703;28;20297;-77
2023/07/07 00:52:45;;;;;;;3.73;3.43;;;17.40;99.90;;;;;;5106715;28;20665;-76
2023/07/07 00:55:18;;;;;;;3.47;3.27;;;17.30;99.90;;;;;;5113852;27;20291;-76
2023/07/07 00:57:44;;;;;;;3.43;3.13;;;17.30;99.90;;;;;;5147908;27;20244;-78
2023/07/07 01:00:14;;;;;;;3.33;3.03;;;17.30;99.90;;;;;;5148242;27;20208;-78
2023/07/07 01:02:44;;;;;;;4.50;3.47;;;17.30;99.90;;;;;;5147644;27;20213;-78
2023/07/07 01:05:13;;;;;;;3.47;3.10;;;17.30;99.90;;;;;;5147856;27;20200;-80
2023/07/07 01:07:44;;;;;;;3.40;3.00;;;17.20;99.90;;;;;;5147825;27;20212;-80
2023/07/07 01:10:11;;;;;;;3.63;3.33;;;17.20;99.90;;;;;;5147557;27;20207;-80
2023/07/07 01:12:38;;;;;;;3.37;3.17;;;17.20;99.90;;;;;;5148080;27;20216;-80
2023/07/07 01:15:07;;;;;;;4.03;3.23;;;17.10;99.90;;;;;;5147990;27;20306;-80
2023/07/07 01:17:44;;;;;;;3.50;3.27;;;17.10;99.90;;;;;;5135310;27;20221;-78
2023/07/07 01:20:19;;;;;;;3.63;3.37;;;17.10;99.90;;;;;;5121197;27;20980;-78
2023/07/07 01:23:22;;;;;;;4.10;3.27;;;17.10;99.90;;;;;;5127289;27;20232;-78
2023/07/07 01:26:17;;;;;;;3.43;3.23;;;17.10;99.90;;;;;;5127064;27;20296;-78
2023/07/07 01:29:07;;;;;;;4.00;3.27;;;17.10;99.90;;;;;;5126835;27;20203;-79
2023/07/07 01:31:42;;;;;;;3.63;3.40;;;17.00;99.90;;;;;;5126764;27;20208;-79
2023/07/07 01:34:11;;;;;;;3.33;3.03;;;17.00;99.90;;;;;;5105923;28;20247;-78
2023/07/07 01:36:38;;;;;;;3.50;3.30;;;17.00;99.90;;;;;;5105869;28;20260;-78
2023/07/07 01:39:06;;;;;;;3.10;2.90;;;16.90;99.90;;;;;;5105817;28;20566;-78
2023/07/07 01:41:39;;;;;;;3.83;3.00;;;16.90;99.90;;;;;;5106102;28;20210;-78
2023/07/07 01:44:18;;;;;;;3.97;3.20;;;16.90;99.90;;;;;;5116988;27;20554;-78
2023/07/07 01:46:51;;;;;;;3.47;3.20;;;16.90;99.90;;;;;;5126882;27;20193;-78
2023/07/07 01:49:22;;;;;;;3.40;3.10;;;16.80;99.90;;;;;;5126808;27;20194;-78
2023/07/07 01:52:00;;;;;;;3.43;3.13;;;16.80;99.90;;;;;;5126521;27;20190;-78
2023/07/07 01:54:29;;;;;;;3.30;3.10;;;16.80;99.90;;;;;;5126468;27;20260;-80
2023/07/07 01:56:56;;;;;;;4.20;3.23;;;16.70;99.90;;;;;;5126178;27;20328;-78
2023/07/07 01:59:25;;;;;;;4.53;3.67;;;16.70;99.90;;;;;;5126339;27;20205;-79
2023/07/07 02:01:55;;;;;;;3.57;3.27;;;16.70;99.90;;;;;;5126440;27;20293;-78
2023/07/07 02:04:22;;;;;;;4.77;3.50;;;16.70;99.90;;;;;;5126350;27;20198;-79
2023/07/07 02:06:49;;;;;;;4.70;3.10;;;16.60;99.90;;;;;;5126218;27;20213;-80
2023/07/07 02:09:16;;;;;;;3.50;3.20;;;16.60;99.90;;;;;;5126147;27;20208;-79
2023/07/07 02:11:42;;;;;;;3.40;3.10;;;16.60;99.90;;;;;;5126418;27;20296;-80
2023/07/07 02:14:09;;;;;;;3.60;3.30;;;16.60;99.90;;;;;;5126332;27;20209;-79
2023/07/07 02:16:36;;;;;;;3.60;3.40;;;16.60;99.90;;;;;;5125787;27;20233;-77
2023/07/07 02:19:04;;;;;;;3.07;2.80;;;16.60;99.90;;;;;;5122250;27;20217;-79
2023/07/07 02:21:31;;;;;;;3.17;2.97;;;16.60;99.90;;;;;;5116055;27;20209;-79
2023/07/07 02:23:58;;;;;;;3.27;3.00;;;16.50;99.90;;;;;;5117280;28;20189;-76
2023/07/07 02:26:25;;;;;;;3.97;3.63;;;16.40;99.90;;;;;;5126573;27;20208;-77
2023/07/07 02:28:52;;;;;;;3.57;3.37;;;16.40;99.90;;;;;;5125373;27;20203;-79
2023/07/07 02:31:24;;;;;;;3.67;3.20;;;16.40;99.90;;;;;;5110625;28;20202;-76
2023/07/07 02:33:51;;;;;;;4.10;3.70;;;16.40;99.90;;;;;;5110185;28;20229;-77
2023/07/07 02:36:19;;;;;;;3.93;3.53;;;16.40;99.90;;;;;;5115375;28;20220;-77
2023/07/07 02:38:46;;;;;;;4.03;3.70;;;16.30;99.90;;;;;;5113738;28;20745;-76
2023/07/07 02:41:13;;;;;;;3.90;3.60;;;16.30;99.90;;;;;;5103317;28;20929;-76
2023/07/07 02:43:41;;;;;;;4.33;3.33;;;16.40;99.90;;;;;;5106546;28;20592;-77
2023/07/07 02:46:08;;;;;;;3.67;3.37;;;16.30;99.90;;;;;;5110861;28;20197;-77
2023/07/07 02:48:35;;;;;;;3.40;3.10;;;16.30;99.90;;;;;;5110421;28;20292;-77
2023/07/07 02:51:04;;;;;;;3.73;3.43;;;16.30;99.90;;;;;;5112150;28;20284;-77
2023/07/07 02:53:34;;;;;;;4.20;3.43;;;16.30;99.90;;;;;;5111808;28;20338;-78
2023/07/07 02:56:01;;;;;;;4.07;3.60;;;16.30;99.90;;;;;;5103424;28;20238;-77
2023/07/07 02:58:28;;;;;;;3.77;3.47;;;16.30;99.90;;;;;;5103206;28;20688;-77
2023/07/07 03:01:09;;;;;;;3.87;3.57;;;16.20;99.90;;;;;;5103830;28;20206;-75
2023/07/07 03:03:37;;;;;;;3.70;3.47;;;16.20;99.90;;;;;;5103511;28;20278;-76
2023/07/07 03:06:05;;;;;;;3.83;3.53;;;16.20;99.90;;;;;;5103093;28;20277;-76
2023/07/07 03:08:33;;;;;;;3.27;3.00;;;16.20;99.90;;;;;;5103135;28;20305;-76
2023/07/07 03:11:05;;;;;;;3.90;3.60;;;16.20;99.90;;;;;;5103284;28;20579;-76
2023/07/07 03:13:32;;;;;;;3.73;3.27;;;16.20;99.90;;;;;;5105135;28;20206;-76
2023/07/07 03:15:59;;;;;;;4.03;3.73;;;16.20;99.90;;;;;;5105097;28;20579;-76
2023/07/07 03:18:25;;;;;;;4.23;3.30;;;16.20;99.90;;;;;;5105679;27;20230;-76
2023/07/07 03:20:52;;;;;;;5.70;3.60;;;16.20;99.90;;;;;;5105416;28;20210;-75
2023/07/07 03:23:19;;;;;;;5.53;3.70;;;16.20;99.90;;;;;;5105649;28;20206;-76
2023/07/07 03:25:47;;;;;;;4.63;3.50;;;16.20;99.90;;;;;;5118481;27;20209;-76
2023/07/07 03:28:14;;;;;;;3.77;3.43;;;16.20;99.90;;;;;;5122172;28;20209;-75
2023/07/07 03:30:41;;;;;;;4.77;3.70;;;16.20;99.90;;;;;;5105687;28;20317;-76
2023/07/07 03:33:08;;;;;;;3.83;3.57;;;16.10;99.90;;;;;;5117522;27;20205;-76
2023/07/07 03:35:35;;;;;;;3.77;3.47;;;16.10;99.90;;;;;;5128929;27;20265;-75
2023/07/07 03:38:02;;;;;;;4.10;3.70;;;16.10;99.90;;;;;;5129026;27;20241;-76
2023/07/07 03:40:29;;;;;;;4.33;3.93;;;16.10;99.90;;;;;;5128657;27;20210;-76
2023/07/07 03:42:57;;;;;;;6.17;3.90;;;16.10;99.90;;;;;;5128716;27;20942;-77
2023/07/07 03:45:24;;;;;;;4.60;3.97;;;16.10;99.90;;;;;;5128869;27;20598;-76
2023/07/07 03:47:51;;;;;;;4.43;4.03;;;16.10;99.90;;;;;;5128874;27;20387;-76
2023/07/07 03:50:18;;;;;;;4.27;3.97;;;16.10;99.90;;;;;;5128725;27;20211;-76
2023/07/07 03:52:45;;;;;;;4.40;3.97;;;16.10;99.90;;;;;;5128707;27;20201;-76
2023/07/07 03:55:11;;;;;;;4.20;3.90;;;16.10;99.90;;;;;;5132571;27;20295;-76
2023/07/07 03:57:38;;;;;;;4.10;3.80;;;16.10;99.90;;;;;;5148745;27;20335;-76
2023/07/07 04:00:08;;;;;;;4.00;3.70;;;16.20;99.90;;;;;;5149317;27;20655;-76
2023/07/07 04:02:35;;;;;;;4.27;3.87;;;16.20;99.90;;;;;;5149153;27;20200;-76
2023/07/07 04:05:02;;;;;;;4.47;4.07;;;16.20;99.90;;;;;;5149257;27;20307;-75
2023/07/07 04:07:29;;;;;;;5.33;3.50;;;16.20;99.90;;;;;;5137189;27;20589;-76
2023/07/07 04:09:56;;;;;;;5.17;4.23;;;16.20;99.90;;;;;;5128794;27;20284;-76
2023/07/07 04:12:23;;;;;;;6.17;3.93;;;16.20;99.90;;;;;;5128421;27;20206;-76
2023/07/07 04:14:50;;;;;;;4.37;4.07;;;16.20;99.90;;;;;;5112208;27;20206;-75
2023/07/07 04:17:18;;;;;;;5.33;4.03;;;16.30;99.90;;;;;;5108036;28;20234;-75
2023/07/07 04:19:45;;;;;;;4.20;3.80;;;16.30;99.90;;;;;;5107812;28;20228;-76
2023/07/07 04:22:11;;;;;;;5.50;4.13;;;16.30;99.90;;;;;;5107583;28;20206;-76
2023/07/07 04:24:38;;;;;;;6.73;4.47;;;16.30;99.90;;;;;;5107644;28;20305;-76
2023/07/07 04:27:06;;;;;;;4.43;3.90;;;16.40;99.90;;;;;;5147291;27;20215;-76
2023/07/07 04:29:33;;;;;;;4.60;3.90;;;16.40;99.90;;;;;;5147330;27;20666;-76
2023/07/07 04:32:00;;;;;;;5.83;4.27;;;16.50;99.90;;;;;;5148687;27;20212;-75
2023/07/07 04:34:30;;;;;;;4.43;3.97;;;16.50;99.90;;;;;;5148397;27;20261;-76
2023/07/07 04:36:56;;;;;;;4.20;3.87;;;16.60;99.90;;;;;;5148217;27;20261;-76
2023/07/07 04:39:24;;;;;;;3.80;3.50;;;16.60;99.90;;;;;;5148492;27;20746;-76
2023/07/07 04:41:51;;;;;;;3.93;3.50;;;16.60;99.90;;;;;;5148534;27;20201;-75
2023/07/07 04:44:18;;;;;;;4.40;4.03;;;16.70;99.90;;;;;;5147802;27;20209;-75
2023/07/07 04:46:45;;;;;;;3.90;3.50;;;16.70;99.90;;;;;;5148570;27;20205;-76
2023/07/07 04:49:11;;;;;;;3.50;3.20;;;16.80;99.90;;;;;;5148506;27;20303;-75
2023/07/07 04:51:42;;;;;;;3.30;3.10;;;16.80;99.90;;;;;;5147630;27;20215;-76
2023/07/07 04:54:13;;;;;;;3.37;3.17;;;16.90;99.90;;;;;;5147947;27;20197;-76
2023/07/07 04:56:40;;;;;;;3.70;2.90;;;17.00;99.90;;;;;;5147765;27;20871;-76
2023/07/07 04:59:07;;;;;;;2.70;2.50;;;17.00;99.90;;;;;;5148431;27;20337;-76
2023/07/07 05:01:34;;;;;;;2.93;2.73;;;17.10;99.90;;;;;;5148164;27;20208;-76
2023/07/07 05:04:03;;;;;;;2.80;2.63;;;17.20;99.90;;;;;;5147984;27;20203;-76
2023/07/07 05:06:32;;;;;;;3.00;2.80;;;17.30;99.90;;;;;;5144119;27;20209;-76
2023/07/07 05:09:03;;;;;;;3.23;2.30;;;17.30;99.90;;;;;;5127182;27;20579;-76
2023/07/07 05:11:31;;;;;;;2.30;2.20;;;17.30;99.90;;;;;;5106122;27;20732;-75
2023/07/07 05:13:59;;;;;;;2.43;2.23;;;17.40;99.90;;;;;;5106172;28;20301;-76
2023/07/07 05:16:31;;;;;;;3.10;2.30;;;17.40;99.90;;;;;;5106264;28;20296;-76
2023/07/07 05:18:57;;;;;;;2.70;2.50;;;17.50;99.90;;;;;;5125454;27;20264;-76
2023/07/07 05:21:26;;;;;;;2.33;2.23;;;17.50;99.90;;;;;;5126935;27;20205;-76
2023/07/07 05:23:53;;;;;;;2.67;2.50;;;17.60;99.90;;;;;;5126934;27;20201;-75
2023/07/07 05:26:23;;;;;;;2.70;2.50;;;17.60;99.90;;;;;;5126857;27;20317;-76
2023/07/07 05:28:51;;;;;;;2.33;2.23;;;17.70;99.90;;;;;;5117574;27;20734;-75
2023/07/07 05:31:18;;;;;;;2.83;2.23;;;17.70;99.90;;;;;;5105917;28;20673;-75
2023/07/07 05:33:45;;;;;;;2.77;2.30;;;17.70;99.90;;;;;;5106128;28;20391;-75
2023/07/07 05:36:12;;;;;;;2.50;2.23;;;17.80;99.90;;;;;;5105765;28;20202;-75
2023/07/07 05:38:40;;;;;;;2.83;2.63;;;17.80;99.90;;;;;;5105365;28;20230;-75
2023/07/07 05:41:07;;;;;;;3.97;2.50;;;17.80;99.90;;;;;;5105891;28;20206;-75
2023/07/07 05:43:35;;;;;;;2.73;2.47;;;17.80;99.90;;;;;;5105941;28;20202;-76
2023/07/07 05:46:04;;;;;;;2.93;2.67;;;17.90;99.90;;;;;;5105861;28;20202;-76
2023/07/07 05:48:32;;;;;;;2.37;2.27;;;17.90;99.90;;;;;;5105778;28;20209;-76
2023/07/07 05:51:00;;;;;;;2.40;2.20;;;17.90;99.90;;;;;;5105752;28;20333;-76
2023/07/07 05:53:27;;;;;;;2.97;2.77;;;17.90;99.90;;;;;;5105933;28;20241;-76
2023/07/07 05:55:57;;;;;;;2.90;2.50;;;18.00;99.90;;;;;;5123899;27;20239;-76
2023/07/07 05:58:24;;;;;;;4.57;2.53;;;18.00;99.90;;;;;;5146358;27;20231;-76
2023/07/07 06:00:52;;;;;;;2.97;2.30;;;18.00;99.90;;;;;;5147457;27;20211;-75
2023/07/07 06:03:19;;;;;;;2.43;2.33;;;18.00;99.90;;;;;;5146869;27;20211;-76
2023/07/07 06:05:46;;;;;;;3.40;2.60;;;18.10;99.90;;;;;;5142684;27;20705;-76
2023/07/07 06:08:13;;;;;;;3.37;2.50;;;18.10;99.90;;;;;;5108101;27;20582;-75
2023/07/07 06:10:40;;;;;;;2.70;2.57;;;18.10;99.90;;;;;;5117985;27;20333;-76
2023/07/07 06:13:07;;;;;;;2.40;2.30;;;18.10;99.90;;;;;;5126334;27;20293;-76
2023/07/07 06:15:34;;;;;;;2.87;2.67;;;18.20;99.90;;;;;;5125769;27;20725;-76
2023/07/07 06:18:02;;;;;;;2.33;2.20;;;18.20;99.90;;;;;;5126106;27;20225;-76
2023/07/07 06:20:29;;;;;;;3.33;2.20;;;18.20;99.90;;;;;;5125413;27;20768;-76
2023/07/07 06:22:57;;;;;;;2.43;2.33;;;18.20;99.90;;;;;;5105653;28;20479;-76
2023/07/07 06:25:24;;;;;;;4.60;2.27;;;18.30;99.90;;;;;;5115349;27;20217;-76
2023/07/07 06:27:51;;;;;;;2.80;2.30;;;18.30;99.90;;;;;;5146163;27;20208;-76
2023/07/07 06:30:18;;;;;;;2.10;2.00;;;18.30;99.90;;;;;;5125945;28;20264;-76
2023/07/07 06:32:45;;;;;;;3.47;2.30;;;18.30;99.90;;;;;;5126116;28;20205;-76
2023/07/07 06:35:14;;;;;;;2.60;2.30;;;18.40;99.90;;;;;;5125473;28;20209;-76
2023/07/07 06:37:41;;;;;;;4.00;2.47;;;18.40;99.90;;;;;;5125767;28;20308;-76
2023/07/07 06:40:09;;;;;;;2.30;2.20;;;18.40;99.90;;;;;;5125697;28;20735;-76
2023/07/07 06:42:36;;;;;;;2.00;1.90;;;18.50;99.90;;;;;;5125586;28;20205;-76
2023/07/07 06:45:03;;;;;;;2.23;2.03;;;18.50;99.90;;;;;;5126038;28;20632;-76
2023/07/07 06:47:30;;;;;;;2.80;2.30;;;18.50;99.90;;;;;;5125590;28;20674;-76
2023/07/07 06:49:57;;;;;;;2.03;1.93;;;18.60;99.90;;;;;;5125980;28;20209;-76
2023/07/07 06:52:25;;;;;;;2.30;1.90;;;18.60;99.90;;;;;;5125339;28;20320;-76
2023/07/07 06:54:54;;;;;;;2.80;2.10;;;18.60;99.90;;;;;;5125515;28;20296;-76
2023/07/07 06:57:22;;;;;;;2.13;1.93;;;18.70;99.90;;;;;;5125093;28;21014;-76
2023/07/07 06:59:48;;;;;;;2.23;2.07;;;18.70;99.90;;;;;;5125514;28;20907;-76
2023/07/07 07:02:16;;;;;;;2.00;1.90;;;18.80;99.90;;;;;;5119707;28;20740;-76
2023/07/07 07:04:43;;;;;;;1.80;1.70;;;18.80;99.90;;;;;;5105438;28;20210;-76
2023/07/07 07:07:10;;;;;;;2.00;1.90;;;18.80;99.90;;;;;;5105152;28;20222;-76
2023/07/07 07:09:38;;;;;;;1.80;1.70;;;18.80;99.90;;;;;;5109232;28;20214;-76
2023/07/07 07:12:06;;;;;;;2.30;2.10;;;18.90;99.90;;;;;;5108847;28;20300;-76
2023/07/07 07:14:33;;;;;;;1.83;1.73;;;18.90;99.90;;;;;;5108843;28;20321;-76
2023/07/07 07:17:00;;;;;;;2.03;1.90;;;18.90;99.90;;;;;;5111411;27;20210;-76
2023/07/07 07:19:27;;;;;;;2.03;1.93;;;18.90;99.90;;;;;;5129473;27;20984;-76
2023/07/07 07:21:54;;;;;;;2.33;1.87;;;19.10;99.90;;;;;;5129064;27;20828;-76
2023/07/07 07:24:23;;;;;;;2.07;1.90;;;19.10;99.90;;;;;;5129334;27;20205;-76
2023/07/07 07:26:51;;;;;;;2.07;1.70;;;19.10;99.90;;;;;;5146506;27;20580;-76
2023/07/07 07:29:18;;;;;;;5.13;1.70;;;19.10;99.90;;;;;;5150081;27;20996;-76
2023/07/07 07:31:45;;;;;;;1.90;1.80;;;19.20;99.90;;;;;;5149768;27;21077;-76
2023/07/07 07:34:24;;;;;;;2.60;2.07;;;19.20;99.90;;;;;;5150127;27;20287;-76
2023/07/07 07:36:52;;;;;;;1.90;1.80;;;19.20;99.90;;;;;;5143443;27;20217;-76
2023/07/07 07:39:20;;;;;;;4.63;1.80;;;19.20;99.90;;;;;;5128612;27;20546;-76
2023/07/07 07:41:48;;;;;;;1.83;1.60;;;19.20;99.90;;;;;;5128716;27;20209;-76
2023/07/07 07:44:18;;;;;;;1.80;1.70;;;19.20;99.90;;;;;;5128721;27;20288;-76
2023/07/07 07:46:46;;;;;;;2.23;1.47;;;19.20;99.90;;;;;;5128311;27;20818;-76
2023/07/07 07:49:13;;;;;;;2.17;1.93;;;19.20;99.90;;;;;;5128832;27;20288;-76
2023/07/07 07:51:40;;;;;;;2.33;1.90;;;19.30;99.90;;;;;;5128343;27;20767;-76
2023/07/07 07:54:08;;;;;;;1.43;1.33;;;19.30;99.90;;;;;;5128766;27;20296;-76
2023/07/07 07:56:38;;;;;;;4.77;1.87;;;19.30;99.90;;;;;;5127688;27;20248;-76
2023/07/07 07:59:06;;;;;;;1.80;1.60;;;19.40;99.90;;;;;;5128097;27;20632;-76
2023/07/07 08:01:35;;;;;;;2.17;1.80;;;19.40;99.90;;;;;;5128534;27;20209;-76
2023/07/07 08:04:03;;;;;;;2.17;1.45;;;19.40;99.90;;;;;;5128387;27;20292;-76
2023/07/07 08:06:30;;;;;;;1.35;1.20;;;19.50;99.90;;;;;;5125024;27;20321;-76
2023/07/07 08:08:56;;;;;;;1.53;1.43;;;19.50;99.90;;;;;;5108102;28;20198;-76
2023/07/07 08:11:48;;;;;;;1.50;1.40;;;19.50;99.90;;;;;;5107415;28;20842;-76
2023/07/07 08:14:17;;;;;;;1.93;1.40;;;19.50;99.90;;;;;;5118593;27;20205;-76
2023/07/07 08:16:46;;;;;;;1.60;1.50;;;19.60;99.90;;;;;;5128636;27;20212;-76
2023/07/07 08:19:13;;;;;;;1.93;1.60;;;19.60;99.90;;;;;;5127620;27;20230;-76
2023/07/07 08:21:40;;;;;;;2.00;1.90;;;19.60;99.90;;;;;;5128130;27;20217;-76
2023/07/07 08:24:08;;;;;;;1.40;1.30;;;19.70;99.90;;;;;;5128159;27;20282;-76
2023/07/07 08:26:35;;;;;;;1.57;1.50;;;19.70;99.90;;;;;;5128035;27;20209;-77
2023/07/07 08:29:04;;;;;;;2.23;1.53;;;19.80;99.90;;;;;;5117331;27;20293;-75
2023/07/07 08:31:31;;;;;;;2.08;1.42;;;19.80;99.90;;;;;;5107204;28;20293;-75
2023/07/07 08:34:00;;;;;;;1.23;1.23;;;19.80;99.90;;;;;;5107468;28;20253;-75
2023/07/07 08:36:27;;;;;;;5.75;1.45;;;19.90;99.90;;;;;;5113680;27;20242;-75
2023/07/07 08:38:54;;;;;;;1.30;1.30;;;20.00;99.90;;;;;;5107544;28;20253;-76
2023/07/07 08:41:21;;;;;;;1.30;1.25;;;20.00;99.90;;;;;;5107458;28;20218;-75
2023/07/07 08:43:48;;;;;;;1.73;1.50;;;20.00;99.90;;;;;;5107702;28;20225;-77
2023/07/07 08:46:26;;;;;;;1.47;1.37;;;20.10;99.90;;;;;;5107447;28;20222;-76
2023/07/07 08:48:59;;;;;;;1.75;1.23;;;20.10;99.90;;;;;;5107308;28;20283;-75
2023/07/07 08:51:34;;;;;;;1.38;1.20;;;20.20;99.90;;;;;;5106896;28;20200;-75
2023/07/07 08:54:08;;;;;;;1.37;1.20;;;20.20;99.90;;;;;;5107059;28;20198;-75
2023/07/07 08:56:44;;;;;;;1.88;1.40;;;20.20;99.60;;;;;;5106608;28;20778;-76
2023/07/07 08:59:23;;;;;;;2.20;1.40;;;20.20;99.70;;;;;;5110175;27;20213;-75
2023/07/07 09:01:59;;;;;;;3.40;1.30;;;20.30;99.90;;;;;;5127469;27;20190;-76
2023/07/07 09:04:42;;;;;;;1.77;1.30;;;20.30;99.90;;;;;;5127419;27;20193;-75
2023/07/07 09:07:35;;;;;;;1.35;1.30;;;20.30;99.90;;;;;;5127016;27;20204;-76
2023/07/07 09:10:13;;;;;;;2.05;1.50;;;20.40;99.90;;;;;;5127186;27;20312;-76
2023/07/07 09:12:45;;;;;;;1.73;1.40;;;20.40;99.50;;;;;;5127098;27;20193;-76
2023/07/07 09:15:18;;;;;;;4.07;1.77;;;20.50;99.90;;;;;;5127548;27;20196;-75
2023/07/07 09:17:48;;;;;;;4.53;1.65;;;20.70;99.00;;;;;;5127291;27;20225;-76
2023/07/07 09:20:18;;;;;;;1.50;1.40;;;20.80;99.00;;;;;;5127069;27;20305;-75
2023/07/07 09:22:50;;;;;;;1.60;1.50;;;20.80;98.80;;;;;;5126991;27;20205;-75
2023/07/07 09:25:20;;;;;;;2.58;1.42;;;20.90;99.10;;;;;;5127144;27;20569;-75
2023/07/07 09:27:55;;;;;;;2.33;1.40;;;21.00;99.10;;;;;;5126707;27;20632;-76
2023/07/07 09:30:28;;;;;;;2.97;1.38;;;21.00;98.90;;;;;;5106674;28;20204;-76
2023/07/07 09:32:55;;;;;;;1.20;1.20;;;21.10;97.70;;;;;;5106868;28;20190;-76
2023/07/07 09:35:25;;;;;;;1.27;1.20;;;21.10;97.80;;;;;;5106083;27;20214;-76
2023/07/07 09:38:04;;;;;;;1.95;1.50;;;21.20;98.00;;;;;;5127089;27;20193;-76
2023/07/07 09:40:38;;;;;;;1.30;1.20;;;21.20;98.30;;;;;;5126394;27;20789;-76
2023/07/07 09:43:14;;;;;;;1.55;1.25;;;21.20;98.00;;;;;;5126914;27;21000;-75
2023/07/07 09:45:48;;;;;;;1.33;1.20;;;21.30;97.80;;;;;;5126910;27;20652;-76
2023/07/07 09:48:23;;;;;;;2.17;1.27;;;21.50;97.60;;;;;;5126814;27;20194;-76
2023/07/07 09:51:01;;;;;;;1.33;1.33;;;21.60;97.60;;;;;;5122671;27;20213;-76
2023/07/07 09:53:33;;;;;;;1.95;1.30;;;21.60;97.30;;;;;;5106158;28;20218;-76
2023/07/07 09:56:00;;;;;;;1.52;1.20;;;21.70;96.70;;;;;;5126004;27;20332;-75
2023/07/07 09:58:32;;;;;;;1.63;1.52;;;21.70;96.90;;;;;;5142991;27;20197;-76
2023/07/07 10:01:02;;;;;;;1.40;1.27;;;21.70;97.00;;;;;;5126733;27;20285;-76
2023/07/07 10:03:34;;;;;;;2.05;1.50;;;21.70;96.90;;;;;;5126423;27;20201;-76
2023/07/07 10:06:10;;;;;;;7.50;1.75;;;21.80;96.80;;;;;;5126693;27;20198;-75
2023/07/07 10:08:38;;;;;;;4.13;1.77;;;21.90;97.60;;;;;;5105754;28;20239;-76
2023/07/07 10:11:17;;;;;;;8.00;1.60;;;22.20;97.00;;;;;;5122566;27;20316;-76
2023/07/07 10:13:44;;;;;;;2.03;1.33;;;22.20;97.00;;;;;;5126481;27;20237;-76
2023/07/07 10:16:29;;;;;;;4.95;1.60;;;22.40;96.50;;;;;;5126853;27;20292;-76
2023/07/07 10:18:58;;;;;;;1.58;1.48;;;22.50;96.60;;;;;;5126406;27;20315;-76
2023/07/07 10:21:25;;;;;;;2.35;1.60;;;22.60;96.40;;;;;;5126075;27;20205;-76
2023/07/07 10:23:54;;;;;;;1.55;1.45;;;22.60;96.50;;;;;;5126205;28;20201;-76
2023/07/07 10:26:21;;;;;;;1.38;1.38;;;22.60;97.00;;;;;;5126224;28;20213;-76
2023/07/07 10:28:48;;;;;;;3.47;1.73;;;22.60;96.30;;;;;;5117527;28;20201;-75
2023/07/07 10:31:16;;;;;;;1.70;1.60;;;22.70;96.30;;;;;;5105795;28;20206;-76
2023/07/07 10:33:44;;;;;;;1.45;1.35;;;22.70;96.70;;;;;;5105264;28;20301;-76
2023/07/07 10:36:25;;;;;;;2.42;1.50;;;22.80;96.50;;;;;;5105350;28;20206;-75
2023/07/07 10:38:55;;;;;;;1.55;1.38;;;22.80;96.00;;;;;;5105881;28;20285;-75
2023/07/07 10:41:22;;;;;;;1.63;1.48;;;23.20;95.40;;;;;;5105925;28;20576;-75
2023/07/07 10:43:49;;;;;;;1.30;1.30;;;23.30;95.60;;;;;;5108699;28;20208;-75
2023/07/07 10:46:16;;;;;;;1.23;1.23;;;23.50;95.60;;;;;;5109890;28;20249;-76
2023/07/07 10:48:44;;;;;;;1.83;1.50;;;23.80;93.30;;;;;;5110785;27;20210;-76
2023/07/07 10:51:25;;;;;;;1.42;1.27;;;23.80;93.80;;;;;;5109989;28;20209;-76
2023/07/07 10:54:01;;;;;;;1.65;1.55;;;23.90;93.90;;;;;;5109843;28;20282;-76
2023/07/07 10:56:35;;;;;;;1.35;1.27;;;23.90;94.90;;;;;;5137523;27;20278;-76
2023/07/07 10:59:32;;;;;;;2.42;1.40;;;24.10;94.60;;;;;;5150802;27;20267;-75
2023/07/07 11:02:16;;;;;;;1.95;1.67;;;24.30;94.40;;;;;;5148560;27;20280;-75
2023/07/07 11:05:03;;;;;;;3.95;1.35;;;24.40;95.20;;;;;;5129766;27;20262;-75
2023/07/07 11:07:38;;;;;;;1.80;1.30;;;24.60;92.70;;;;;;5117524;27;20718;-75
2023/07/07 11:10:22;;;;;;;3.45;1.60;;;24.90;92.30;;;;;;5109117;28;20190;-76
2023/07/07 11:13:03;;;;;;;1.35;1.25;;;24.90;91.80;;;;;;5109542;28;20285;-76
2023/07/07 11:15:38;;;;;;;2.80;1.50;;;25.00;92.10;;;;;;5109403;28;20218;-75
2023/07/07 11:18:27;;;;;;;2.35;1.88;;;25.10;92.80;;;;;;5109446;28;20226;-75
2023/07/07 11:21:07;;;;;;;2.50;1.60;;;25.10;92.70;;;;;;5108902;28;20228;-75
2023/07/07 11:23:54;;;;;;;8.43;1.90;;;25.20;92.70;;;;;;5108986;28;20565;-76
2023/07/07 11:26:30;;;;;;;3.38;1.67;;;25.40;92.50;;;;;;5135387;27;20324;-75
2023/07/07 11:29:03;;;;;;;1.75;1.65;;;25.60;92.90;;;;;;5139831;27;20201;-76
2023/07/07 11:31:45;;;;;;;2.95;1.88;;;25.60;92.40;;;;;;5129196;27;20561;-76
2023/07/07 11:34:28;;;;;;;6.03;1.70;;;25.80;92.30;;;;;;5129445;27;20198;-75
2023/07/07 11:37:12;;;;;;;1.75;1.40;;;26.00;90.60;;;;;;5122322;27;20263;-76
2023/07/07 11:39:57;;;;;;;2.22;1.40;;;26.10;90.10;;;;;;5108487;28;20325;-76
2023/07/07 11:42:42;;;;;;;2.00;1.80;;;26.30;90.40;;;;;;5108555;28;20333;-75
2023/07/07 11:45:19;;;;;;;4.45;1.50;;;26.40;90.20;;;;;;5108760;28;20301;-75
2023/07/07 11:48:13;;;;;;;2.05;1.38;;;26.50;90.80;;;;;;5108611;28;20198;-76
2023/07/07 11:50:57;;;;;;;1.70;1.60;;;26.60;90.70;;;;;;5109377;27;20671;-75
2023/07/07 11:53:44;;;;;;;2.30;1.52;;;26.80;90.40;;;;;;5128486;27;20276;-75
2023/07/07 11:56:33;;;;;;;1.83;1.70;;;26.90;89.90;;;;;;5135348;27;20245;-76
2023/07/07 11:59:13;;;;;;;1.60;1.55;;;27.00;90.30;;;;;;5140259;27;20281;-75
2023/07/07 12:01:44;;;;;;;1.65;1.55;;;27.20;89.10;;;;;;5128685;27;20212;-76
2023/07/07 12:04:20;;;;;;;2.28;1.65;;;27.30;89.90;;;;;;5128887;27;20668;-76
2023/07/07 12:06:52;;;;;;;1.73;1.63;;;27.40;88.70;;;;;;5128999;27;20201;-75
2023/07/07 12:09:24;;;;;;;2.17;1.70;;;27.50;88.60;;;;;;5129317;27;20200;-75
2023/07/07 12:11:57;;;;;;;1.58;1.50;;;27.70;88.80;;;;;;5128899;27;20732;-75
2023/07/07 12:14:32;;;;;;;1.75;1.30;;;27.80;90.30;;;;;;5128153;27;20573;-75
2023/07/07 12:17:00;;;;;;;1.65;1.55;;;27.80;89.70;;;;;;5128308;27;20220;-75
2023/07/07 12:19:34;;;;;;;1.60;1.50;;;27.90;89.00;;;;;;5127921;27;20844;-75
2023/07/07 12:22:05;;;;;;;1.73;1.63;;;28.00;87.30;;;;;;5128096;27;20188;-75
2023/07/07 12:24:40;;;;;;;1.70;1.60;;;28.20;86.70;;;;;;5127908;27;20950;-76
2023/07/07 12:27:14;;;;;;;3.00;1.75;;;28.40;86.90;;;;;;5147993;27;20227;-76
2023/07/07 12:29:45;;;;;;;2.35;2.00;;;28.60;88.20;;;;;;5148721;27;20208;-76
2023/07/07 12:32:12;;;;;;;2.00;1.77;;;28.80;87.00;;;;;;5143244;27;20216;-75
2023/07/07 12:34:42;;;;;;;1.73;1.63;;;28.90;84.10;;;;;;5127631;27;20209;-75
2023/07/07 12:37:18;;;;;;;1.70;1.60;;;29.00;84.30;;;;;;5118754;27;20295;-76
2023/07/07 12:39:53;;;;;;;2.70;1.65;;;29.10;83.90;;;;;;5108010;27;20218;-76
2023/07/07 12:42:22;;;;;;;1.67;1.58;;;29.10;83.50;;;;;;5106945;28;20201;-75
2023/07/07 12:44:50;;;;;;;1.58;1.48;;;29.20;82.40;;;;;;5107225;28;20209;-75
2023/07/07 12:47:28;;;;;;;1.70;1.60;;;29.30;82.30;;;;;;5106929;28;20206;-76
2023/07/07 12:49:58;;;;;;;1.63;1.60;;;29.10;82.00;;;;;;5106740;28;20202;-75
2023/07/07 12:52:30;;;;;;;13.55;12.20;;;29.00;83.30;;;;;;5106997;28;20209;-76
2023/07/07 12:55:16;;;;;;;2.75;2.47;;;29.10;83.70;;;;;;5113483;27;20301;-75
2023/07/07 12:57:59;;;;;;;2.40;1.90;;;29.30;81.90;;;;;;5127202;27;20241;-75
2023/07/07 13:00:32;;;;;;;2.70;1.80;;;29.40;82.00;;;;;;5106393;28;20714;-75
2023/07/07 13:03:14;;;;;;;2.47;1.73;;;29.50;83.70;;;;;;5107664;28;20228;-76
2023/07/07 13:05:45;;;;;;;3.67;1.80;;;29.60;82.40;;;;;;5114061;27;20294;-75